sensor_id;sensor_type;location;lat;lon;timestamp;pressure;altitude;pressure_sealevel;temperature
68743;BMP180;55725;42.758;26.702;2022-08-18T00:00:39;98698.00;;;25.40
68743;BMP180;55725;42.758;26.702;2022-08-18T00:02:21;98702.00;;;25.50
68743;BMP180;55725;42.758;26.702;2022-08-18T00:04:02;98696.00;;;25.50
68743;BMP180;55725;42.758;26.702;2022-08-18T00:05:43;98708.00;;;25.50
68743;BMP180;55725;42.758;26.702;2022-08-18T00:07:24;98700.00;;;25.60
68743;BMP180;55725;42.758;26.702;2022-08-18T00:09:06;98704.00;;;25.60
68743;BMP180;55725;42.758;26.702;2022-08-18T00:10:46;98694.00;;;25.60
68743;BMP180;55725;42.758;26.702;2022-08-18T00:12:28;98695.00;;;25.60
68743;BMP180;55725;42.758;26.702;2022-08-18T00:14:11;98699.00;;;25.60
68743;BMP180;55725;42.758;26.702;2022-08-18T00:15:51;98696.00;;;25.60
68743;BMP180;55725;42.758;26.702;2022-08-18T00:17:32;98699.00;;;25.60
68743;BMP180;55725;42.758;26.702;2022-08-18T00:19:13;98698.00;;;25.50
68743;BMP180;55725;42.758;26.702;2022-08-18T00:20:53;98698.00;;;25.50
68743;BMP180;55725;42.758;26.702;2022-08-18T00:22:33;98694.00;;;25.50
68743;BMP180;55725;42.758;26.702;2022-08-18T00:24:14;98702.00;;;25.40
68743;BMP180;55725;42.758;26.702;2022-08-18T00:25:54;98695.00;;;25.30
68743;BMP180;55725;42.758;26.702;2022-08-18T00:27:36;98693.00;;;25.40
68743;BMP180;55725;42.758;26.702;2022-08-18T00:29:17;98693.00;;;25.40
68743;BMP180;55725;42.758;26.702;2022-08-18T00:30:57;98694.00;;;25.40
68743;BMP180;55725;42.758;26.702;2022-08-18T00:32:39;98695.00;;;25.40
68743;BMP180;55725;42.758;26.702;2022-08-18T00:34:20;98698.00;;;25.30
68743;BMP180;55725;42.758;26.702;2022-08-18T00:36:00;98700.00;;;25.30
68743;BMP180;55725;42.758;26.702;2022-08-18T00:37:41;98698.00;;;25.30
68743;BMP180;55725;42.758;26.702;2022-08-18T00:39:21;98702.00;;;25.40
68743;BMP180;55725;42.758;26.702;2022-08-18T00:41:02;98702.00;;;25.30
68743;BMP180;55725;42.758;26.702;2022-08-18T00:42:44;98700.00;;;25.20
68743;BMP180;55725;42.758;26.702;2022-08-18T00:44:25;98696.00;;;25.20
68743;BMP180;55725;42.758;26.702;2022-08-18T00:46:06;98700.00;;;25.20
68743;BMP180;55725;42.758;26.702;2022-08-18T00:47:47;98696.00;;;25.40
68743;BMP180;55725;42.758;26.702;2022-08-18T00:49:27;98704.00;;;25.40
68743;BMP180;55725;42.758;26.702;2022-08-18T00:51:11;98694.00;;;25.50
68743;BMP180;55725;42.758;26.702;2022-08-18T00:52:58;98702.00;;;25.40
68743;BMP180;55725;42.758;26.702;2022-08-18T00:54:39;98698.00;;;25.50
68743;BMP180;55725;42.758;26.702;2022-08-18T00:56:32;98698.00;;;25.50
68743;BMP180;55725;42.758;26.702;2022-08-18T00:58:17;98699.00;;;25.40
68743;BMP180;55725;42.758;26.702;2022-08-18T01:00:02;98694.00;;;25.40
68743;BMP180;55725;42.758;26.702;2022-08-18T01:01:51;98693.00;;;25.40
68743;BMP180;55725;42.758;26.702;2022-08-18T01:03:32;98700.00;;;25.50
68743;BMP180;55725;42.758;26.702;2022-08-18T01:05:20;98708.00;;;25.50
68743;BMP180;55725;42.758;26.702;2022-08-18T01:07:09;98697.00;;;25.30
68743;BMP180;55725;42.758;26.702;2022-08-18T01:08:51;98704.00;;;25.30
68743;BMP180;55725;42.758;26.702;2022-08-18T01:10:31;98706.00;;;25.30
68743;BMP180;55725;42.758;26.702;2022-08-18T01:12:12;98706.00;;;25.20
68743;BMP180;55725;42.758;26.702;2022-08-18T01:13:52;98700.00;;;25.20
68743;BMP180;55725;42.758;26.702;2022-08-18T01:15:33;98693.00;;;25.30
68743;BMP180;55725;42.758;26.702;2022-08-18T01:17:13;98685.00;;;25.30
68743;BMP180;55725;42.758;26.702;2022-08-18T01:19:13;98682.00;;;25.30
68743;BMP180;55725;42.758;26.702;2022-08-18T01:21:20;98684.00;;;25.30
68743;BMP180;55725;42.758;26.702;2022-08-18T01:23:21;98686.00;;;25.20
68743;BMP180;55725;42.758;26.702;2022-08-18T01:25:02;98674.00;;;25.40
68743;BMP180;55725;42.758;26.702;2022-08-18T01:27:02;98687.00;;;25.40
68743;BMP180;55725;42.758;26.702;2022-08-18T01:28:43;98689.00;;;25.40
68743;BMP180;55725;42.758;26.702;2022-08-18T01:30:24;98688.00;;;25.30
68743;BMP180;55725;42.758;26.702;2022-08-18T01:32:04;98691.00;;;25.40
68743;BMP180;55725;42.758;26.702;2022-08-18T01:33:45;98692.00;;;25.20
68743;BMP180;55725;42.758;26.702;2022-08-18T01:35:25;98693.00;;;25.20
68743;BMP180;55725;42.758;26.702;2022-08-18T01:37:06;98693.00;;;25.20
68743;BMP180;55725;42.758;26.702;2022-08-18T01:38:48;98679.00;;;25.30
68743;BMP180;55725;42.758;26.702;2022-08-18T01:40:29;98688.00;;;25.30
68743;BMP180;55725;42.758;26.702;2022-08-18T01:42:11;98690.00;;;25.20
68743;BMP180;55725;42.758;26.702;2022-08-18T01:43:52;98696.00;;;25.20
68743;BMP180;55725;42.758;26.702;2022-08-18T01:45:33;98701.00;;;25.20
68743;BMP180;55725;42.758;26.702;2022-08-18T01:47:13;98702.00;;;25.20
68743;BMP180;55725;42.758;26.702;2022-08-18T01:48:54;98702.00;;;25.10
68743;BMP180;55725;42.758;26.702;2022-08-18T01:50:35;98702.00;;;25.10
68743;BMP180;55725;42.758;26.702;2022-08-18T01:52:16;98703.00;;;25.10
68743;BMP180;55725;42.758;26.702;2022-08-18T01:53:59;98702.00;;;25.00
68743;BMP180;55725;42.758;26.702;2022-08-18T01:55:40;98700.00;;;25.00
68743;BMP180;55725;42.758;26.702;2022-08-18T01:57:23;98700.00;;;25.00
68743;BMP180;55725;42.758;26.702;2022-08-18T01:59:04;98702.00;;;24.90
68743;BMP180;55725;42.758;26.702;2022-08-18T02:00:46;98699.00;;;24.80
68743;BMP180;55725;42.758;26.702;2022-08-18T02:02:27;98701.00;;;24.80
68743;BMP180;55725;42.758;26.702;2022-08-18T02:04:08;98698.00;;;24.90
68743;BMP180;55725;42.758;26.702;2022-08-18T02:05:49;98705.00;;;24.90
68743;BMP180;55725;42.758;26.702;2022-08-18T02:07:30;98705.00;;;24.70
68743;BMP180;55725;42.758;26.702;2022-08-18T02:09:11;98701.00;;;24.80
68743;BMP180;55725;42.758;26.702;2022-08-18T02:10:51;98699.00;;;24.60
68743;BMP180;55725;42.758;26.702;2022-08-18T02:12:32;98699.00;;;24.60
68743;BMP180;55725;42.758;26.702;2022-08-18T02:14:12;98699.00;;;24.60
68743;BMP180;55725;42.758;26.702;2022-08-18T02:15:52;98712.00;;;24.60
68743;BMP180;55725;42.758;26.702;2022-08-18T02:17:37;98702.00;;;24.60
68743;BMP180;55725;42.758;26.702;2022-08-18T02:19:17;98708.00;;;24.60
68743;BMP180;55725;42.758;26.702;2022-08-18T02:20:58;98710.00;;;24.40
68743;BMP180;55725;42.758;26.702;2022-08-18T02:22:46;98704.00;;;24.30
68743;BMP180;55725;42.758;26.702;2022-08-18T02:24:27;98715.00;;;24.30
68743;BMP180;55725;42.758;26.702;2022-08-18T02:26:08;98707.00;;;24.60
68743;BMP180;55725;42.758;26.702;2022-08-18T02:27:49;98708.00;;;24.40
68743;BMP180;55725;42.758;26.702;2022-08-18T02:29:30;98724.00;;;24.40
68743;BMP180;55725;42.758;26.702;2022-08-18T02:31:15;98710.00;;;24.50
68743;BMP180;55725;42.758;26.702;2022-08-18T02:32:56;98714.00;;;24.60
68743;BMP180;55725;42.758;26.702;2022-08-18T02:34:36;98709.00;;;24.60
68743;BMP180;55725;42.758;26.702;2022-08-18T02:36:17;98721.00;;;24.40
68743;BMP180;55725;42.758;26.702;2022-08-18T02:37:58;98728.00;;;24.30
68743;BMP180;55725;42.758;26.702;2022-08-18T02:39:38;98720.00;;;24.40
68743;BMP180;55725;42.758;26.702;2022-08-18T02:41:18;98723.00;;;24.40
68743;BMP180;55725;42.758;26.702;2022-08-18T02:43:06;98723.00;;;24.40
68743;BMP180;55725;42.758;26.702;2022-08-18T02:44:48;98718.00;;;24.40
68743;BMP180;55725;42.758;26.702;2022-08-18T02:46:28;98720.00;;;24.40
68743;BMP180;55725;42.758;26.702;2022-08-18T02:48:08;98714.00;;;24.40
68743;BMP180;55725;42.758;26.702;2022-08-18T02:49:49;98712.00;;;24.20
68743;BMP180;55725;42.758;26.702;2022-08-18T02:51:30;98714.00;;;24.20
68743;BMP180;55725;42.758;26.702;2022-08-18T02:53:10;98724.00;;;24.20
68743;BMP180;55725;42.758;26.702;2022-08-18T02:55:00;98719.00;;;24.30
68743;BMP180;55725;42.758;26.702;2022-08-18T02:56:41;98718.00;;;24.30
68743;BMP180;55725;42.758;26.702;2022-08-18T02:58:24;98716.00;;;24.30
68743;BMP180;55725;42.758;26.702;2022-08-18T03:00:04;98718.00;;;24.30
68743;BMP180;55725;42.758;26.702;2022-08-18T03:01:46;98718.00;;;24.30
68743;BMP180;55725;42.758;26.702;2022-08-18T03:03:27;98728.00;;;24.20
68743;BMP180;55725;42.758;26.702;2022-08-18T03:05:11;98730.00;;;24.30
68743;BMP180;55725;42.758;26.702;2022-08-18T03:06:52;98726.00;;;24.40
68743;BMP180;55725;42.758;26.702;2022-08-18T03:08:33;98726.00;;;24.40
68743;BMP180;55725;42.758;26.702;2022-08-18T03:10:13;98717.00;;;24.40
68743;BMP180;55725;42.758;26.702;2022-08-18T03:11:55;98726.00;;;24.40
68743;BMP180;55725;42.758;26.702;2022-08-18T03:13:35;98730.00;;;24.30
68743;BMP180;55725;42.758;26.702;2022-08-18T03:15:16;98725.00;;;24.40
68743;BMP180;55725;42.758;26.702;2022-08-18T03:16:57;98727.00;;;24.40
68743;BMP180;55725;42.758;26.702;2022-08-18T03:18:37;98725.00;;;24.40
68743;BMP180;55725;42.758;26.702;2022-08-18T03:20:17;98732.00;;;24.40
68743;BMP180;55725;42.758;26.702;2022-08-18T03:21:58;98721.00;;;24.50
68743;BMP180;55725;42.758;26.702;2022-08-18T03:23:39;98715.00;;;24.50
68743;BMP180;55725;42.758;26.702;2022-08-18T03:25:19;98722.00;;;24.50
68743;BMP180;55725;42.758;26.702;2022-08-18T03:27:02;98725.00;;;24.50
68743;BMP180;55725;42.758;26.702;2022-08-18T03:28:45;98726.00;;;24.50
68743;BMP180;55725;42.758;26.702;2022-08-18T03:30:25;98732.00;;;24.50
68743;BMP180;55725;42.758;26.702;2022-08-18T03:32:06;98732.00;;;24.60
68743;BMP180;55725;42.758;26.702;2022-08-18T03:33:50;98732.00;;;24.50
68743;BMP180;55725;42.758;26.702;2022-08-18T03:35:32;98734.00;;;24.60
68743;BMP180;55725;42.758;26.702;2022-08-18T03:37:13;98740.00;;;24.60
68743;BMP180;55725;42.758;26.702;2022-08-18T03:38:57;98737.00;;;24.60
68743;BMP180;55725;42.758;26.702;2022-08-18T03:40:37;98733.00;;;24.50
68743;BMP180;55725;42.758;26.702;2022-08-18T03:42:17;98729.00;;;24.50
68743;BMP180;55725;42.758;26.702;2022-08-18T03:43:58;98732.00;;;24.50
68743;BMP180;55725;42.758;26.702;2022-08-18T03:45:39;98729.00;;;24.50
68743;BMP180;55725;42.758;26.702;2022-08-18T03:47:20;98726.00;;;24.50
68743;BMP180;55725;42.758;26.702;2022-08-18T03:49:00;98728.00;;;24.60
68743;BMP180;55725;42.758;26.702;2022-08-18T03:50:41;98731.00;;;24.60
68743;BMP180;55725;42.758;26.702;2022-08-18T03:52:21;98729.00;;;24.70
68743;BMP180;55725;42.758;26.702;2022-08-18T03:54:03;98730.00;;;24.70
68743;BMP180;55725;42.758;26.702;2022-08-18T03:55:44;98728.00;;;24.70
68743;BMP180;55725;42.758;26.702;2022-08-18T03:57:24;98727.00;;;24.60
68743;BMP180;55725;42.758;26.702;2022-08-18T03:59:06;98732.00;;;24.70
68743;BMP180;55725;42.758;26.702;2022-08-18T04:00:46;98725.00;;;24.70
68743;BMP180;55725;42.758;26.702;2022-08-18T04:02:27;98724.00;;;24.60
68743;BMP180;55725;42.758;26.702;2022-08-18T04:04:09;98732.00;;;24.60
68743;BMP180;55725;42.758;26.702;2022-08-18T04:05:49;98736.00;;;24.60
68743;BMP180;55725;42.758;26.702;2022-08-18T04:07:29;98736.00;;;24.70
68743;BMP180;55725;42.758;26.702;2022-08-18T04:09:11;98730.00;;;24.70
68743;BMP180;55725;42.758;26.702;2022-08-18T04:10:52;98737.00;;;24.70
68743;BMP180;55725;42.758;26.702;2022-08-18T04:12:33;98735.00;;;24.80
68743;BMP180;55725;42.758;26.702;2022-08-18T04:14:15;98728.00;;;24.70
68743;BMP180;55725;42.758;26.702;2022-08-18T04:15:57;98729.00;;;24.80
68743;BMP180;55725;42.758;26.702;2022-08-18T04:17:38;98732.00;;;24.80
68743;BMP180;55725;42.758;26.702;2022-08-18T04:19:18;98727.00;;;24.70
68743;BMP180;55725;42.758;26.702;2022-08-18T04:21:06;98742.00;;;24.70
68743;BMP180;55725;42.758;26.702;2022-08-18T04:22:47;98745.00;;;24.70
68743;BMP180;55725;42.758;26.702;2022-08-18T04:24:27;98737.00;;;24.70
68743;BMP180;55725;42.758;26.702;2022-08-18T04:26:08;98738.00;;;24.80
68743;BMP180;55725;42.758;26.702;2022-08-18T04:27:50;98743.00;;;24.80
68743;BMP180;55725;42.758;26.702;2022-08-18T04:29:30;98739.00;;;24.90
68743;BMP180;55725;42.758;26.702;2022-08-18T04:31:12;98743.00;;;24.90
68743;BMP180;55725;42.758;26.702;2022-08-18T04:32:53;98746.00;;;25.00
68743;BMP180;55725;42.758;26.702;2022-08-18T04:34:34;98743.00;;;25.00
68743;BMP180;55725;42.758;26.702;2022-08-18T04:36:14;98750.00;;;25.10
68743;BMP180;55725;42.758;26.702;2022-08-18T04:37:55;98752.00;;;25.20
68743;BMP180;55725;42.758;26.702;2022-08-18T04:39:36;98755.00;;;25.40
68743;BMP180;55725;42.758;26.702;2022-08-18T04:41:17;98749.00;;;25.20
68743;BMP180;55725;42.758;26.702;2022-08-18T04:42:57;98757.00;;;24.60
68743;BMP180;55725;42.758;26.702;2022-08-18T04:44:37;98757.00;;;24.80
68743;BMP180;55725;42.758;26.702;2022-08-18T04:46:18;98758.00;;;24.80
68743;BMP180;55725;42.758;26.702;2022-08-18T04:47:58;98757.00;;;25.20
68743;BMP180;55725;42.758;26.702;2022-08-18T04:49:39;98762.00;;;24.90
68743;BMP180;55725;42.758;26.702;2022-08-18T04:51:19;98765.00;;;24.90
68743;BMP180;55725;42.758;26.702;2022-08-18T04:52:59;98764.00;;;25.30
68743;BMP180;55725;42.758;26.702;2022-08-18T04:54:58;98765.00;;;25.50
68743;BMP180;55725;42.758;26.702;2022-08-18T04:56:40;98764.00;;;25.60
68743;BMP180;55725;42.758;26.702;2022-08-18T04:58:22;98758.00;;;25.40
68743;BMP180;55725;42.758;26.702;2022-08-18T05:00:03;98755.00;;;25.60
68743;BMP180;55725;42.758;26.702;2022-08-18T05:01:44;98757.00;;;25.60
68743;BMP180;55725;42.758;26.702;2022-08-18T05:03:25;98762.00;;;25.60
68743;BMP180;55725;42.758;26.702;2022-08-18T05:05:06;98761.00;;;25.60
68743;BMP180;55725;42.758;26.702;2022-08-18T05:06:46;98763.00;;;25.60
68743;BMP180;55725;42.758;26.702;2022-08-18T05:08:26;98757.00;;;25.60
68743;BMP180;55725;42.758;26.702;2022-08-18T05:10:07;98770.00;;;25.80
68743;BMP180;55725;42.758;26.702;2022-08-18T05:11:47;98756.00;;;25.80
68743;BMP180;55725;42.758;26.702;2022-08-18T05:13:28;98758.00;;;25.90
68743;BMP180;55725;42.758;26.702;2022-08-18T05:15:08;98757.00;;;26.20
68743;BMP180;55725;42.758;26.702;2022-08-18T05:16:49;98760.00;;;26.40
68743;BMP180;55725;42.758;26.702;2022-08-18T05:18:31;98764.00;;;26.60
68743;BMP180;55725;42.758;26.702;2022-08-18T05:20:11;98764.00;;;26.40
68743;BMP180;55725;42.758;26.702;2022-08-18T05:21:53;98758.00;;;26.30
68743;BMP180;55725;42.758;26.702;2022-08-18T05:23:34;98759.00;;;26.20
68743;BMP180;55725;42.758;26.702;2022-08-18T05:25:15;98760.00;;;26.50
68743;BMP180;55725;42.758;26.702;2022-08-18T05:26:56;98749.00;;;26.40
68743;BMP180;55725;42.758;26.702;2022-08-18T05:28:36;98751.00;;;26.50
68743;BMP180;55725;42.758;26.702;2022-08-18T05:30:16;98751.00;;;26.70
68743;BMP180;55725;42.758;26.702;2022-08-18T05:31:57;98753.00;;;26.60
68743;BMP180;55725;42.758;26.702;2022-08-18T05:33:40;98753.00;;;26.60
68743;BMP180;55725;42.758;26.702;2022-08-18T05:35:22;98744.00;;;26.60
68743;BMP180;55725;42.758;26.702;2022-08-18T05:37:10;98750.00;;;26.70
68743;BMP180;55725;42.758;26.702;2022-08-18T05:39:05;98749.00;;;26.70
68743;BMP180;55725;42.758;26.702;2022-08-18T05:42:49;98751.00;;;27.10
68743;BMP180;55725;42.758;26.702;2022-08-18T05:46:46;98752.00;;;27.10
68743;BMP180;55725;42.758;26.702;2022-08-18T05:48:28;98748.00;;;27.20
68743;BMP180;55725;42.758;26.702;2022-08-18T05:50:10;98746.00;;;27.40
68743;BMP180;55725;42.758;26.702;2022-08-18T05:51:56;98748.00;;;27.50
68743;BMP180;55725;42.758;26.702;2022-08-18T05:53:37;98755.00;;;27.60
68743;BMP180;55725;42.758;26.702;2022-08-18T05:55:38;98749.00;;;27.50
68743;BMP180;55725;42.758;26.702;2022-08-18T05:57:51;98750.00;;;27.80
68743;BMP180;55725;42.758;26.702;2022-08-18T05:59:34;98752.00;;;28.00
68743;BMP180;55725;42.758;26.702;2022-08-18T06:01:18;98748.00;;;28.00
68743;BMP180;55725;42.758;26.702;2022-08-18T06:03:15;98747.00;;;28.10
68743;BMP180;55725;42.758;26.702;2022-08-18T06:06:57;98744.00;;;28.20
68743;BMP180;55725;42.758;26.702;2022-08-18T06:10:37;98745.00;;;28.50
68743;BMP180;55725;42.758;26.702;2022-08-18T06:13:58;98739.00;;;28.50
68743;BMP180;55725;42.758;26.702;2022-08-18T06:19:15;98745.00;;;28.40
68743;BMP180;55725;42.758;26.702;2022-08-18T06:21:21;98747.00;;;28.60
68743;BMP180;55725;42.758;26.702;2022-08-18T06:28:34;98741.00;;;29.10
68743;BMP180;55725;42.758;26.702;2022-08-18T06:30:19;98750.00;;;29.20
68743;BMP180;55725;42.758;26.702;2022-08-18T06:32:07;98749.00;;;29.20
68743;BMP180;55725;42.758;26.702;2022-08-18T06:35:54;98746.00;;;28.90
68743;BMP180;55725;42.758;26.702;2022-08-18T06:37:44;98749.00;;;29.20
68743;BMP180;55725;42.758;26.702;2022-08-18T06:39:56;98758.00;;;29.40
68743;BMP180;55725;42.758;26.702;2022-08-18T06:41:38;98745.00;;;29.30
68743;BMP180;55725;42.758;26.702;2022-08-18T06:43:19;98743.00;;;29.40
68743;BMP180;55725;42.758;26.702;2022-08-18T06:45:01;98754.00;;;29.40
68743;BMP180;55725;42.758;26.702;2022-08-18T06:48:53;98758.00;;;29.00
68743;BMP180;55725;42.758;26.702;2022-08-18T06:54:05;98762.00;;;29.30
68743;BMP180;55725;42.758;26.702;2022-08-18T06:55:47;98760.00;;;29.80
68743;BMP180;55725;42.758;26.702;2022-08-18T06:57:29;98766.00;;;29.90
68743;BMP180;55725;42.758;26.702;2022-08-18T07:00:55;98764.00;;;29.60
68743;BMP180;55725;42.758;26.702;2022-08-18T07:04:31;98764.00;;;29.80
68743;BMP180;55725;42.758;26.702;2022-08-18T07:09:43;98774.00;;;30.00
68743;BMP180;55725;42.758;26.702;2022-08-18T07:11:33;98765.00;;;30.00
68743;BMP180;55725;42.758;26.702;2022-08-18T07:13:15;98769.00;;;29.90
68743;BMP180;55725;42.758;26.702;2022-08-18T07:14:58;98773.00;;;30.20
68743;BMP180;55725;42.758;26.702;2022-08-18T07:16:39;98771.00;;;30.10
68743;BMP180;55725;42.758;26.702;2022-08-18T07:18:26;98776.00;;;30.60
68743;BMP180;55725;42.758;26.702;2022-08-18T07:22:09;98774.00;;;30.30
68743;BMP180;55725;42.758;26.702;2022-08-18T07:23:57;98768.00;;;30.20
68743;BMP180;55725;42.758;26.702;2022-08-18T07:25:39;98776.00;;;30.50
68743;BMP180;55725;42.758;26.702;2022-08-18T07:29:18;98768.00;;;30.50
68743;BMP180;55725;42.758;26.702;2022-08-18T07:31:13;98771.00;;;30.40
68743;BMP180;55725;42.758;26.702;2022-08-18T07:32:57;98763.00;;;30.50
68743;BMP180;55725;42.758;26.702;2022-08-18T07:34:40;98768.00;;;30.60
68743;BMP180;55725;42.758;26.702;2022-08-18T07:36:23;98761.00;;;30.70
68743;BMP180;55725;42.758;26.702;2022-08-18T07:39:53;98758.00;;;30.90
68743;BMP180;55725;42.758;26.702;2022-08-18T07:41:39;98765.00;;;31.00
68743;BMP180;55725;42.758;26.702;2022-08-18T07:43:23;98751.00;;;31.00
68743;BMP180;55725;42.758;26.702;2022-08-18T07:45:17;98752.00;;;30.90
68743;BMP180;55725;42.758;26.702;2022-08-18T07:47:17;98753.00;;;30.60
68743;BMP180;55725;42.758;26.702;2022-08-18T07:48:59;98755.00;;;30.70
68743;BMP180;55725;42.758;26.702;2022-08-18T07:52:30;98753.00;;;31.00
68743;BMP180;55725;42.758;26.702;2022-08-18T07:56:01;98753.00;;;31.20
68743;BMP180;55725;42.758;26.702;2022-08-18T07:59:50;98759.00;;;31.60
68743;BMP180;55725;42.758;26.702;2022-08-18T08:07:34;98752.00;;;32.00
68743;BMP180;55725;42.758;26.702;2022-08-18T08:12:49;98758.00;;;31.70
68743;BMP180;55725;42.758;26.702;2022-08-18T08:14:41;98746.00;;;31.90
68743;BMP180;55725;42.758;26.702;2022-08-18T08:17:06;98747.00;;;31.90
68743;BMP180;55725;42.758;26.702;2022-08-18T08:18:37;98760.00;;;31.80
68743;BMP180;55725;42.758;26.702;2022-08-18T08:20:28;98751.00;;;31.90
68743;BMP180;55725;42.758;26.702;2022-08-18T08:22:12;98741.00;;;31.70
68743;BMP180;55725;42.758;26.702;2022-08-18T08:24:16;98754.00;;;31.70
68743;BMP180;55725;42.758;26.702;2022-08-18T08:30:04;98737.00;;;32.30
68743;BMP180;55725;42.758;26.702;2022-08-18T08:33:33;98735.00;;;32.30
68743;BMP180;55725;42.758;26.702;2022-08-18T08:35:17;98734.00;;;32.50
68743;BMP180;55725;42.758;26.702;2022-08-18T08:37:23;98731.00;;;32.60
68743;BMP180;55725;42.758;26.702;2022-08-18T08:39:03;98734.00;;;32.40
68743;BMP180;55725;42.758;26.702;2022-08-18T08:40:50;98735.00;;;32.90
68743;BMP180;55725;42.758;26.702;2022-08-18T08:44:33;98726.00;;;32.50
68743;BMP180;55725;42.758;26.702;2022-08-18T08:46:26;98733.00;;;31.90
68743;BMP180;55725;42.758;26.702;2022-08-18T08:48:19;98723.00;;;32.20
68743;BMP180;55725;42.758;26.702;2022-08-18T08:50:02;98719.00;;;32.30
68743;BMP180;55725;42.758;26.702;2022-08-18T08:51:44;98721.00;;;32.10
68743;BMP180;55725;42.758;26.702;2022-08-18T08:56:58;98717.00;;;32.70
68743;BMP180;55725;42.758;26.702;2022-08-18T08:58:45;98711.00;;;32.60
68743;BMP180;55725;42.758;26.702;2022-08-18T09:00:27;98718.00;;;33.00
68743;BMP180;55725;42.758;26.702;2022-08-18T09:04:37;98716.00;;;32.60
68743;BMP180;55725;42.758;26.702;2022-08-18T09:10:06;98708.00;;;31.80
68743;BMP180;55725;42.758;26.702;2022-08-18T09:12:08;98710.00;;;32.90
68743;BMP180;55725;42.758;26.702;2022-08-18T09:17:25;98698.00;;;33.40
68743;BMP180;55725;42.758;26.702;2022-08-18T09:21:02;98692.00;;;33.10
68743;BMP180;55725;42.758;26.702;2022-08-18T09:22:51;98688.00;;;32.60
68743;BMP180;55725;42.758;26.702;2022-08-18T09:25:06;98690.00;;;33.10
68743;BMP180;55725;42.758;26.702;2022-08-18T09:26:42;98693.00;;;33.50
68743;BMP180;55725;42.758;26.702;2022-08-18T09:35:56;98684.00;;;34.20
68743;BMP180;55725;42.758;26.702;2022-08-18T09:39:29;98728.00;;;34.80
68743;BMP180;55725;42.758;26.702;2022-08-18T09:41:32;98670.00;;;34.40
68743;BMP180;55725;42.758;26.702;2022-08-18T09:43:15;98670.00;;;34.30
68743;BMP180;55725;42.758;26.702;2022-08-18T09:44:58;98758.00;;;33.80
68743;BMP180;55725;42.758;26.702;2022-08-18T09:48:27;98729.00;;;32.90
68743;BMP180;55725;42.758;26.702;2022-08-18T09:51:56;98679.00;;;33.50
68743;BMP180;55725;42.758;26.702;2022-08-18T09:58:56;98668.00;;;34.40
68743;BMP180;55725;42.758;26.702;2022-08-18T10:00:41;98673.00;;;34.10
68743;BMP180;55725;42.758;26.702;2022-08-18T10:06:11;98678.00;;;35.30
68743;BMP180;55725;42.758;26.702;2022-08-18T10:09:56;98672.00;;;34.40
68743;BMP180;55725;42.758;26.702;2022-08-18T10:11:44;98665.00;;;35.40
68743;BMP180;55725;42.758;26.702;2022-08-18T10:15:19;98674.00;;;35.10
68743;BMP180;55725;42.758;26.702;2022-08-18T10:17:10;98665.00;;;34.80
68743;BMP180;55725;42.758;26.702;2022-08-18T10:20:53;98700.00;;;35.00
68743;BMP180;55725;42.758;26.702;2022-08-18T10:22:37;98689.00;;;34.40
68743;BMP180;55725;42.758;26.702;2022-08-18T10:24:18;98663.00;;;34.30
68743;BMP180;55725;42.758;26.702;2022-08-18T10:26:00;98744.00;;;35.10
68743;BMP180;55725;42.758;26.702;2022-08-18T10:31:07;98688.00;;;35.00
68743;BMP180;55725;42.758;26.702;2022-08-18T10:32:56;98693.00;;;34.70
68743;BMP180;55725;42.758;26.702;2022-08-18T10:34:39;98674.00;;;34.80
68743;BMP180;55725;42.758;26.702;2022-08-18T10:41:53;98671.00;;;35.10
68743;BMP180;55725;42.758;26.702;2022-08-18T10:43:45;98663.00;;;35.70
68743;BMP180;55725;42.758;26.702;2022-08-18T10:45:37;98743.00;;;34.60
68743;BMP180;55725;42.758;26.702;2022-08-18T10:47:19;98657.00;;;34.40
68743;BMP180;55725;42.758;26.702;2022-08-18T10:49:03;98660.00;;;35.70
68743;BMP180;55725;42.758;26.702;2022-08-18T10:59:48;98751.00;;;32.00
68743;BMP180;55725;42.758;26.702;2022-08-18T11:03:38;98668.00;;;34.40
68743;BMP180;55725;42.758;26.702;2022-08-18T11:05:31;98674.00;;;34.90
68743;BMP180;55725;42.758;26.702;2022-08-18T11:07:25;98740.00;;;34.60
68743;BMP180;55725;42.758;26.702;2022-08-18T11:09:06;98743.00;;;33.10
68743;BMP180;55725;42.758;26.702;2022-08-18T11:10:48;98733.00;;;32.60
68743;BMP180;55725;42.758;26.702;2022-08-18T11:14:46;98745.00;;;32.70
68743;BMP180;55725;42.758;26.702;2022-08-18T11:20:16;98750.00;;;32.30
68743;BMP180;55725;42.758;26.702;2022-08-18T11:22:00;98748.00;;;32.30
68743;BMP180;55725;42.758;26.702;2022-08-18T11:23:41;98742.00;;;32.60
68743;BMP180;55725;42.758;26.702;2022-08-18T11:25:27;98687.00;;;32.40
68743;BMP180;55725;42.758;26.702;2022-08-18T11:27:21;98682.00;;;32.90
68743;BMP180;55725;42.758;26.702;2022-08-18T11:29:19;98673.00;;;34.60
68743;BMP180;55725;42.758;26.702;2022-08-18T11:31:01;98673.00;;;35.10
68743;BMP180;55725;42.758;26.702;2022-08-18T11:32:41;98664.00;;;34.90
68743;BMP180;55725;42.758;26.702;2022-08-18T11:34:43;98676.00;;;34.30
68743;BMP180;55725;42.758;26.702;2022-08-18T11:36:28;98655.00;;;35.30
68743;BMP180;55725;42.758;26.702;2022-08-18T11:38:10;98710.00;;;35.50
68743;BMP180;55725;42.758;26.702;2022-08-18T11:39:53;98723.00;;;34.40
68743;BMP180;55725;42.758;26.702;2022-08-18T11:41:37;98734.00;;;33.10
68743;BMP180;55725;42.758;26.702;2022-08-18T11:43:27;98739.00;;;33.00
68743;BMP180;55725;42.758;26.702;2022-08-18T11:45:18;98731.00;;;33.40
68743;BMP180;55725;42.758;26.702;2022-08-18T11:47:08;98730.00;;;33.30
68743;BMP180;55725;42.758;26.702;2022-08-18T11:48:49;98717.00;;;32.60
68743;BMP180;55725;42.758;26.702;2022-08-18T11:50:30;98722.00;;;33.00
68743;BMP180;55725;42.758;26.702;2022-08-18T11:52:17;98725.00;;;33.40
68743;BMP180;55725;42.758;26.702;2022-08-18T11:55:40;98708.00;;;34.00
68743;BMP180;55725;42.758;26.702;2022-08-18T11:57:36;98718.00;;;33.40
68743;BMP180;55725;42.758;26.702;2022-08-18T12:01:05;98707.00;;;33.20
68743;BMP180;55725;42.758;26.702;2022-08-18T12:02:59;98695.00;;;33.30
68743;BMP180;55725;42.758;26.702;2022-08-18T12:04:40;98705.00;;;33.60